OMAAHKMO

Guest
Details From OMAA - Abu Dhabi Intl
To HKMO - Mombasa Moi Intl
Flight Number -
Tags Generated
Created
Modified
Stats Distance 1,923 nm / 3,561 km
Max Altitude 0 ft / 0 m
Waypoints 5
Social Downloads 0
Likes 0
Share VATSIM

Download

Looking for another format? Having issues loading an existing format? Contact us
Advertisement - Login to hide

Notes

Generated

Route

OMAA ITELI ULDIB MOV18 HKMO

ID Type Via Altitude Latitude Longitude Leg Dist Tot Dist Heading (true) Name
O OMAA APT - 0 ft / 0 m 24.44439˚ 54.63521˚ - 0 nm - -
ITELI FIX - 0 ft / 0 m 17.21944˚ 50.43472˚ 493 nm 493 nm 209° / 208° -
ULDIB FIX - 0 ft / 0 m 14.19667˚ 48.90611˚ 201 nm 695 nm 206° / 206° -
MOV18 FIX - 0 ft / 0 m -3.92150˚ 39.65717˚ 1219 nm 1915 nm 208° / 207° -
O HKMO APT - 0 ft / 0 m -4.02983˚ 39.59137˚ 7 nm 1922 nm 211° / 211° -

Altitude Profile

Advertisement - Login to hide

Weather


0- 5 10 15 20 25 30 35+ Temperature / ° C

Clouds and Precipitation
Forecast for 2017-12-18 00:00 UTC. Updated 14 minutes ago

Ground ~20,000 ft ~40,000 ft Winds

OMAA

Details ICAO OMAA (AUH)
Name ABU DHABI INTL
Region United Arab Emirates
Timezone Asia/Dubai (UTC+4.0)
Stats Elevation 88 ft / 27 m (AMSL)
Location 24.433049° 54.651182°
Runways 1
Magnetic Variation 1.980° E

METAR

OMAA 172100Z VRB02KT CAVOK 18/13 Q1019 NOSIG

Decode

TAF

TAF OMAA 171714Z 1718/1900 33005KT 8000 FEW040 BECMG 1721/1723 VRB02KT BECMG 1805/1807 06005KT BECMG 1811/1813 35012KT

Decode

Departure Runways

ID Width Length Bearing (true) Bearing (mag) Surface Threshold Offset Overrun Length
13 148 ft / 45 m 13,461 ft / 4,103 m 127.94° 125.96° Asphalt 0 ft / 0 m 180 ft / 55 m
31 148 ft / 45 m 13,461 ft / 4,103 m 307.95° 305.97° Asphalt 0 ft / 0 m 196 ft / 60 m

HKMO

Details ICAO HKMO (MBA)
Name MOMBASA MOI INTL
Region Kenya
Timezone Africa/Nairobi (UTC+3.0)
Stats Elevation 200 ft / 61 m (AMSL)
Location -4.030744° 39.596732°
Runways 2
Magnetic Variation 0.939° W

METAR

HKMO 172100Z 05003KT 9999 FEW022 25/23 Q1013 NOSIG

Decode

TAF

TAF HKMO 171700Z 1718/1824 06005KT 9999 FEW023 BECMG 1800/1806 00000KT FEW019 BECMG 1809/1812 06010KT SCT025 BECMG 1819/1822 04004KT FEW022

Decode

Destination Runways

ID Width Length Bearing (true) Bearing (mag) Surface Threshold Offset Overrun Length
03 151 ft / 46 m 11,040 ft / 3,365 m 29.14° 30.08° Asphalt 2,503 ft / 763 m 197 ft / 60 m
15 118 ft / 36 m 4,492 ft / 1,369 m 150.47° 151.41° Asphalt 0 ft / 0 m 190 ft / 58 m
21 151 ft / 46 m 11,040 ft / 3,365 m 209.14° 210.08° Asphalt 0 ft / 0 m 197 ft / 60 m
33 118 ft / 36 m 4,492 ft / 1,369 m 330.47° 331.41° Asphalt 0 ft / 0 m 250 ft / 76 m

Approach Navaids

Runway Type Ident Frequency Range Bearing (true) Bearing (mag) Slope Elevation
21 Localiser IMI 110.10 MHz 18 nm / 33 km 209.16° 210.10° - 187 ft / 57 m (AMSL)
21 Glidescope IMI 110.10 MHz 10 nm / 19 km 209.14° 210.07° 3.00° 194 ft / 59 m (AMSL)
21 DME IMI 110.10 MHz 18 nm / 33 km - - - 257 ft / 78 m (AMSL)